createdAt,value
2018-12-11T00:00:25.790Z,1.60
2018-12-11T00:02:56.430Z,1.57
2018-12-11T00:05:26.008Z,1.40
2018-12-11T00:07:57.728Z,1.60
2018-12-11T00:10:29.093Z,1.67
2018-12-11T00:12:59.165Z,1.40
2018-12-11T00:15:29.759Z,1.67
2018-12-11T00:17:58.606Z,1.50
2018-12-11T00:20:28.540Z,1.55
2018-12-11T00:22:58.672Z,1.30
2018-12-11T00:25:27.676Z,1.32
2018-12-11T00:27:57.016Z,1.70
2018-12-11T00:30:26.774Z,1.40
2018-12-11T00:32:56.590Z,1.12
2018-12-11T00:35:27.189Z,1.42
2018-12-11T00:37:57.801Z,1.30
2018-12-11T00:40:27.285Z,1.40
2018-12-11T00:42:57.382Z,1.35
2018-12-11T00:45:26.972Z,1.20
2018-12-11T00:47:55.612Z,1.20
2018-12-11T00:50:27.042Z,1.20
2018-12-11T00:52:56.124Z,0.95
2018-12-11T00:55:24.519Z,1.10
2018-12-11T00:57:53.686Z,0.90
2018-12-11T01:00:24.927Z,1.05
2018-12-11T01:02:54.034Z,0.80
2018-12-11T01:05:25.984Z,0.70
2018-12-11T01:07:54.318Z,0.85
2018-12-11T01:10:23.910Z,0.90
2018-12-11T01:12:53.851Z,0.90
2018-12-11T01:15:23.191Z,0.93
2018-12-11T01:17:51.530Z,0.80
2018-12-11T01:20:22.602Z,0.85
2018-12-11T01:22:51.852Z,0.78
2018-12-11T01:25:21.285Z,0.80
2018-12-11T01:27:49.615Z,0.90
2018-12-11T01:30:18.613Z,0.95
2018-12-11T01:32:48.444Z,1.00
2018-12-11T01:35:19.386Z,0.90
2018-12-11T01:37:47.891Z,0.90
2018-12-11T01:40:18.736Z,0.85
2018-12-11T01:42:49.156Z,1.00
2018-12-11T01:45:19.671Z,1.00
2018-12-11T01:47:52.188Z,0.88
2018-12-11T01:50:20.555Z,0.82
2018-12-11T01:52:50.088Z,0.98
2018-12-11T01:55:19.080Z,1.00
2018-12-11T01:57:49.344Z,0.80
2018-12-11T02:00:19.581Z,0.75
2018-12-11T02:02:49.749Z,0.80
2018-12-11T02:05:19.525Z,1.05
2018-12-11T02:07:48.929Z,0.93
2018-12-11T02:10:17.983Z,0.98
2018-12-11T02:12:48.755Z,1.00
2018-12-11T02:15:17.435Z,1.10
2018-12-11T02:17:46.810Z,0.90
2018-12-11T02:20:15.409Z,1.10
2018-12-11T02:22:44.970Z,1.00
2018-12-11T02:25:14.783Z,0.90
2018-12-11T02:27:44.922Z,1.02
2018-12-11T02:30:14.794Z,1.00
2018-12-11T02:32:47.239Z,1.10
2018-12-11T02:35:17.223Z,1.30
2018-12-11T02:37:46.698Z,1.00
2018-12-11T02:40:16.725Z,0.90
2018-12-11T02:42:46.189Z,0.82
2018-12-11T02:45:16.212Z,0.90
2018-12-11T02:47:46.127Z,0.98
2018-12-11T02:50:18.385Z,0.90
2018-12-11T02:52:47.930Z,1.00
2018-12-11T02:55:18.169Z,0.90
2018-12-11T02:57:49.288Z,0.90
2018-12-11T03:00:20.706Z,1.10
2018-12-11T03:02:50.785Z,1.10
2018-12-11T03:05:19.296Z,0.80
2018-12-11T03:07:49.705Z,1.17
2018-12-11T03:10:19.104Z,0.90
2018-12-11T03:12:48.932Z,1.10
2018-12-11T03:15:18.365Z,0.90
2018-12-11T03:17:47.862Z,0.98
2018-12-11T03:20:18.001Z,0.98
2018-12-11T03:22:46.446Z,1.30
2018-12-11T03:25:14.975Z,1.30
2018-12-11T03:27:43.443Z,1.32
2018-12-11T03:30:13.934Z,1.40
2018-12-11T03:32:43.202Z,1.45
2018-12-11T03:35:12.586Z,1.37
2018-12-11T03:37:41.714Z,1.20
2018-12-11T03:40:11.229Z,1.02
2018-12-11T03:42:40.393Z,1.10
2018-12-11T03:45:12.953Z,1.35
2018-12-11T03:47:42.785Z,1.32
2018-12-11T03:50:12.905Z,1.10
2018-12-11T03:52:44.591Z,1.32
2018-12-11T03:55:14.973Z,1.32
2018-12-11T03:57:45.704Z,1.25
2018-12-11T04:00:15.221Z,1.20
2018-12-11T04:02:46.175Z,1.30
2018-12-11T04:05:16.492Z,1.25
2018-12-11T04:07:45.142Z,1.10
2018-12-11T04:10:14.076Z,1.20
2018-12-11T04:12:42.908Z,1.12
2018-12-11T04:15:13.321Z,1.20
2018-12-11T04:17:44.799Z,1.20
2018-12-11T04:20:14.025Z,1.20
2018-12-11T04:22:46.817Z,1.27
2018-12-11T04:25:17.879Z,1.40
2018-12-11T04:27:48.154Z,1.20
2018-12-11T04:30:17.651Z,1.02
2018-12-11T04:32:49.618Z,1.10
2018-12-11T04:35:20.052Z,1.12
2018-12-11T04:37:49.874Z,1.07
2018-12-11T04:40:19.889Z,1.07
2018-12-11T04:42:49.542Z,1.00
2018-12-11T04:45:18.013Z,1.10
2018-12-11T04:47:49.075Z,1.10
2018-12-11T04:50:17.423Z,1.27
2018-12-11T04:52:45.844Z,1.17
2018-12-11T04:55:16.404Z,1.20
2018-12-11T04:57:46.549Z,1.22
2018-12-11T05:00:17.593Z,1.40
2018-12-11T05:02:48.670Z,1.25
2018-12-11T05:05:19.437Z,1.20
2018-12-11T05:07:48.719Z,1.15
2018-12-11T05:10:17.672Z,1.50
2018-12-11T05:12:48.831Z,1.42
2018-12-11T05:15:19.204Z,1.22
2018-12-11T05:17:48.529Z,1.50
2018-12-11T05:20:19.303Z,1.60
2018-12-11T05:22:49.726Z,1.40
2018-12-11T05:25:19.044Z,1.90
2018-12-11T05:27:50.268Z,1.25
2018-12-11T05:30:21.322Z,1.67
2018-12-11T05:32:51.077Z,1.90
2018-12-11T05:35:21.343Z,2.00
2018-12-11T05:37:51.829Z,2.00
2018-12-11T05:40:22.901Z,2.33
2018-12-11T05:42:52.343Z,1.80
2018-12-11T05:45:25.510Z,2.27
2018-12-11T05:47:56.051Z,2.02
2018-12-11T05:50:29.690Z,1.80
2018-12-11T05:52:59.292Z,1.82
2018-12-11T05:55:30.893Z,1.60
2018-12-11T05:58:02.215Z,1.50
2018-12-11T06:00:31.594Z,1.72
2018-12-11T06:03:01.309Z,1.70
2018-12-11T06:05:33.395Z,1.50
2018-12-11T06:08:05.457Z,1.70
2018-12-11T06:10:35.281Z,1.50
2018-12-11T06:13:04.323Z,1.42
2018-12-11T06:15:34.322Z,1.52
2018-12-11T06:18:05.005Z,1.80
2018-12-11T06:20:39.516Z,1.70
2018-12-11T06:23:08.050Z,1.60
2018-12-11T06:25:39.262Z,1.50
2018-12-11T06:28:09.787Z,1.82
2018-12-11T06:30:39.732Z,1.45
2018-12-11T06:33:14.401Z,1.55
2018-12-11T06:35:44.731Z,1.60
2018-12-11T06:38:14.074Z,1.40
2018-12-11T06:40:43.454Z,1.40
2018-12-11T06:43:14.838Z,1.75
2018-12-11T06:45:44.313Z,1.60
2018-12-11T06:48:13.294Z,1.98
2018-12-11T06:50:41.870Z,1.57
2018-12-11T06:53:14.735Z,1.50
2018-12-11T06:55:43.747Z,2.60
2018-12-11T06:58:12.868Z,2.20
2018-12-11T07:00:42.243Z,1.47
2018-12-11T07:03:12.414Z,1.75
2018-12-11T07:05:42.468Z,1.45
2018-12-11T07:08:15.835Z,1.40
2018-12-11T07:10:45.967Z,1.42
2018-12-11T07:13:16.591Z,1.52
2018-12-11T07:15:45.714Z,1.40
2018-12-11T07:18:17.090Z,1.40
2018-12-11T07:20:47.589Z,1.50
2018-12-11T07:23:18.117Z,1.52
2018-12-11T07:25:48.750Z,1.30
2018-12-11T07:28:17.302Z,1.10
2018-12-11T07:30:49.729Z,1.32
2018-12-11T07:33:20.251Z,1.50
2018-12-11T07:35:49.907Z,1.25
2018-12-11T07:38:19.839Z,1.40
2018-12-11T07:40:50.689Z,1.10
2018-12-11T07:43:20.454Z,1.30
2018-12-11T07:45:51.576Z,1.20
2018-12-11T07:48:20.487Z,1.50
2018-12-11T07:50:49.413Z,1.30
2018-12-11T07:53:20.053Z,1.17
2018-12-11T07:55:52.161Z,1.35
2018-12-11T07:58:22.243Z,1.37
2018-12-11T08:00:52.772Z,1.40
2018-12-11T08:03:22.436Z,1.57
2018-12-11T08:05:51.081Z,1.50
2018-12-11T08:08:21.673Z,1.20
2018-12-11T08:10:51.513Z,1.60
2018-12-11T08:13:21.358Z,1.47
2018-12-11T08:15:52.030Z,1.82
2018-12-11T08:18:21.884Z,1.70
2018-12-11T08:20:52.018Z,1.82
2018-12-11T08:23:23.127Z,1.90
2018-12-11T08:25:53.917Z,2.10
2018-12-11T08:28:23.914Z,1.98
2018-12-11T08:30:58.628Z,1.60
2018-12-11T08:33:27.295Z,1.85
2018-12-11T08:35:58.670Z,1.77
2018-12-11T08:38:33.410Z,1.90
2018-12-11T08:41:05.745Z,1.92
2018-12-11T08:43:35.671Z,1.85
2018-12-11T08:46:04.028Z,2.05
2018-12-11T08:48:34.654Z,2.52
2018-12-11T08:51:03.797Z,1.75
2018-12-11T08:53:32.833Z,2.17
2018-12-11T08:56:03.166Z,2.05
2018-12-11T08:58:31.760Z,1.85
2018-12-11T09:01:04.644Z,1.70
2018-12-11T09:03:34.269Z,2.00
2018-12-11T09:06:04.898Z,2.02
2018-12-11T09:08:35.839Z,1.98
2018-12-11T09:11:05.962Z,1.90
2018-12-11T09:13:37.146Z,1.92
2018-12-11T09:16:06.978Z,1.80
2018-12-11T09:18:37.531Z,1.90
2018-12-11T09:21:08.555Z,1.82
2018-12-11T09:23:38.889Z,2.17
2018-12-11T09:26:09.764Z,1.60
2018-12-11T09:28:39.093Z,1.70
2018-12-11T09:31:09.300Z,1.77
2018-12-11T09:33:38.944Z,1.70
2018-12-11T09:36:08.515Z,1.72
2018-12-11T09:38:36.971Z,1.67
2018-12-11T09:41:06.460Z,1.62
2018-12-11T09:43:38.118Z,1.57
2018-12-11T09:46:08.974Z,1.80
2018-12-11T09:48:38.416Z,1.30
2018-12-11T09:51:10.995Z,1.60
2018-12-11T09:53:44.111Z,1.57
2018-12-11T09:56:16.554Z,2.00
2018-12-11T09:58:47.476Z,2.20
2018-12-11T10:01:18.132Z,2.35
2018-12-11T10:03:48.551Z,2.50
2018-12-11T10:06:20.070Z,3.10
2018-12-11T10:08:53.597Z,2.67
2018-12-11T10:11:24.849Z,2.55
2018-12-11T10:13:54.536Z,2.60
2018-12-11T10:16:24.722Z,2.55
2018-12-11T10:18:56.071Z,2.40
2018-12-11T10:21:27.293Z,3.00
2018-12-11T10:23:56.517Z,2.75
2018-12-11T10:26:25.685Z,2.47
2018-12-11T10:28:56.018Z,2.65
2018-12-11T10:31:25.818Z,2.95
2018-12-11T10:33:55.240Z,2.80
2018-12-11T10:36:24.886Z,2.92
2018-12-11T10:38:54.438Z,2.77
2018-12-11T10:41:23.235Z,2.45
2018-12-11T10:43:52.762Z,2.70
2018-12-11T10:46:22.430Z,2.40
2018-12-11T10:48:52.929Z,2.40
2018-12-11T10:51:23.799Z,2.90
2018-12-11T10:53:54.774Z,2.02
2018-12-11T10:56:25.764Z,2.10
2018-12-11T10:58:54.463Z,1.98
2018-12-11T11:01:27.878Z,1.92
2018-12-11T11:03:58.549Z,1.87
2018-12-11T11:06:28.546Z,1.70
2018-12-11T11:09:00.287Z,1.90
2018-12-11T11:11:29.215Z,1.72
2018-12-11T11:13:59.323Z,1.60
2018-12-11T11:16:28.485Z,3.33
2018-12-11T11:18:59.296Z,2.90
2018-12-11T11:21:28.327Z,4.92
2018-12-11T11:23:56.781Z,4.97
2018-12-11T11:26:25.127Z,4.40
2018-12-11T11:28:53.426Z,4.45
2018-12-11T11:31:21.765Z,4.28
2018-12-11T11:33:56.456Z,4.70
2018-12-11T11:36:20.995Z,21.82
2018-12-11T11:38:49.871Z,48.00
2018-12-11T11:41:18.442Z,112.03
2018-12-11T11:43:48.690Z,158.35
2018-12-11T11:46:17.249Z,105.85
2018-12-11T11:48:45.562Z,146.85
2018-12-11T11:51:15.449Z,103.15
2018-12-11T11:53:45.445Z,64.15
2018-12-11T11:56:13.866Z,57.67
2018-12-11T11:58:43.505Z,49.83
2018-12-11T12:01:12.269Z,49.03
2018-12-11T12:03:40.821Z,40.90
2018-12-11T12:06:09.331Z,35.92
2018-12-11T12:08:37.800Z,31.68
2018-12-11T12:11:06.401Z,27.65
2018-12-11T12:13:34.880Z,25.05
2018-12-11T12:16:04.354Z,17.15
2018-12-11T12:18:32.951Z,17.27
2018-12-11T12:21:02.499Z,14.55
2018-12-11T12:23:30.998Z,13.03
2018-12-11T12:26:01.897Z,10.23
2018-12-11T12:28:30.420Z,9.38
2018-12-11T12:31:01.029Z,9.08
2018-12-11T12:33:30.808Z,8.55
2018-12-11T12:36:00.526Z,6.92
2018-12-11T12:38:29.938Z,6.95
2018-12-11T12:40:58.477Z,5.80
2018-12-11T12:43:27.000Z,5.08
2018-12-11T12:45:55.574Z,4.92
2018-12-11T12:48:24.273Z,10.55
2018-12-11T12:50:53.705Z,37.10
2018-12-11T12:53:22.363Z,32.53
2018-12-11T12:55:50.877Z,36.75
2018-12-11T12:58:20.093Z,42.83
2018-12-11T13:00:48.703Z,32.85
2018-12-11T13:03:17.717Z,23.25
2018-12-11T13:05:47.578Z,19.82
2018-12-11T13:08:16.413Z,16.95
2018-12-11T13:10:45.596Z,16.27
2018-12-11T13:13:14.170Z,14.15
2018-12-11T13:15:43.161Z,12.80
2018-12-11T13:18:12.272Z,10.65
2018-12-11T13:20:40.654Z,11.18
2018-12-11T13:23:09.224Z,10.28
2018-12-11T13:25:38.812Z,8.20
2018-12-11T13:28:08.212Z,8.68
2018-12-11T13:30:37.587Z,6.92
2018-12-11T13:33:06.481Z,6.47
2018-12-11T13:35:35.791Z,5.35
2018-12-11T13:38:04.934Z,5.67
2018-12-11T13:40:34.733Z,6.03
2018-12-11T13:43:04.097Z,5.75
2018-12-11T13:45:33.435Z,5.28
2018-12-11T13:48:02.567Z,4.58
2018-12-11T13:50:31.697Z,4.83
2018-12-11T13:53:01.144Z,5.22
2018-12-11T13:55:29.669Z,5.08
2018-12-11T13:57:58.376Z,5.30
2018-12-11T14:00:27.839Z,4.70
2018-12-11T14:02:56.940Z,5.33
2018-12-11T14:05:26.455Z,41.92
2018-12-11T14:07:55.312Z,40.92
2018-12-11T14:10:23.888Z,36.00
2018-12-11T14:12:53.411Z,34.40
2018-12-11T14:15:22.089Z,43.33
2018-12-11T14:17:51.950Z,26.82
2018-12-11T14:20:20.490Z,25.05
2018-12-11T14:22:49.011Z,19.42
2018-12-11T14:25:17.859Z,16.95
2018-12-11T14:27:47.585Z,15.30
2018-12-11T14:30:16.635Z,12.70
2018-12-11T14:32:45.116Z,10.88
2018-12-11T14:35:13.564Z,9.83
2018-12-11T14:37:43.764Z,8.65
2018-12-11T14:40:12.392Z,7.83
2018-12-11T14:42:42.060Z,7.17
2018-12-11T14:45:10.680Z,7.80
2018-12-11T14:47:39.231Z,6.67
2018-12-11T14:50:09.062Z,6.00
2018-12-11T14:52:37.702Z,5.25
2018-12-11T14:55:06.069Z,4.90
2018-12-11T14:57:34.516Z,5.00
2018-12-11T15:00:03.804Z,4.90
2018-12-11T15:02:32.447Z,4.22
2018-12-11T15:05:01.118Z,4.30
2018-12-11T15:07:29.576Z,4.42
2018-12-11T15:09:58.904Z,4.15
2018-12-11T15:12:28.546Z,3.67
2018-12-11T15:14:57.402Z,4.12
2018-12-11T15:17:27.280Z,4.28
2018-12-11T15:19:56.522Z,5.30
2018-12-11T15:22:25.189Z,99.25
2018-12-11T15:24:53.844Z,37.67
2018-12-11T15:27:22.867Z,40.78
2018-12-11T15:29:51.770Z,42.08
2018-12-11T15:32:20.545Z,30.40
2018-12-11T15:34:50.470Z,23.92
2018-12-11T15:37:21.011Z,22.62
2018-12-11T15:39:49.683Z,19.55
2018-12-11T15:42:18.864Z,18.05
2018-12-11T15:44:47.262Z,16.42
2018-12-11T15:47:16.028Z,14.58
2018-12-11T15:49:44.700Z,15.08
2018-12-11T15:52:13.952Z,14.33
2018-12-11T15:54:42.429Z,12.15
2018-12-11T15:57:11.288Z,12.23
2018-12-11T15:59:40.194Z,11.08
2018-12-11T16:02:09.949Z,10.20
2018-12-11T16:04:38.530Z,22.67
2018-12-11T16:07:07.358Z,44.25
2018-12-11T16:09:37.670Z,35.40
2018-12-11T16:12:06.663Z,37.35
2018-12-11T16:14:36.117Z,32.98
2018-12-11T16:17:05.384Z,30.05
2018-12-11T16:19:35.503Z,22.00
2018-12-11T16:22:04.095Z,19.45
2018-12-11T16:24:33.241Z,18.85
2018-12-11T16:27:03.050Z,15.65
2018-12-11T16:29:31.755Z,13.55
2018-12-11T16:32:01.964Z,11.55
2018-12-11T16:34:30.948Z,9.55
2018-12-11T16:36:59.945Z,9.35
2018-12-11T16:39:28.736Z,8.73
2018-12-11T16:41:57.816Z,8.03
2018-12-11T16:44:27.328Z,6.75
2018-12-11T16:46:56.782Z,6.42
2018-12-11T16:49:25.649Z,6.30
2018-12-11T16:51:54.687Z,5.60
2018-12-11T16:54:23.458Z,5.95
2018-12-11T16:56:52.422Z,5.05
2018-12-11T16:59:21.003Z,5.15
2018-12-11T17:01:50.315Z,4.87
2018-12-11T17:04:18.972Z,5.17
2018-12-11T17:06:47.867Z,5.90
2018-12-11T17:09:17.572Z,5.35
2018-12-11T17:11:46.255Z,6.15
2018-12-11T17:14:14.910Z,110.52
2018-12-11T17:16:43.714Z,38.95
2018-12-11T17:19:12.381Z,31.20
2018-12-11T17:21:46.768Z,31.48
2018-12-11T17:24:11.564Z,25.25
2018-12-11T17:26:41.999Z,20.75
2018-12-11T17:29:10.547Z,19.10
2018-12-11T17:31:39.963Z,17.62
2018-12-11T17:34:08.455Z,13.85
2018-12-11T17:36:37.448Z,11.35
2018-12-11T17:39:06.887Z,10.98
2018-12-11T17:41:35.433Z,9.30
2018-12-11T17:44:05.583Z,8.53
2018-12-11T17:46:34.279Z,8.00
2018-12-11T17:49:02.919Z,7.35
2018-12-11T17:51:31.675Z,6.40
2018-12-11T17:54:01.923Z,6.20
2018-12-11T17:56:30.743Z,5.35
2018-12-11T17:58:59.638Z,5.17
2018-12-11T18:01:31.250Z,4.97
2018-12-11T18:03:59.762Z,4.40
2018-12-11T18:06:28.472Z,5.00
2018-12-11T18:08:57.338Z,4.37
2018-12-11T18:11:26.334Z,4.40
2018-12-11T18:13:54.734Z,4.90
2018-12-11T18:16:23.474Z,4.90
2018-12-11T18:18:53.473Z,4.50
2018-12-11T18:21:22.904Z,4.20
2018-12-11T18:23:51.771Z,4.62
2018-12-11T18:26:20.548Z,4.45
2018-12-11T18:28:49.096Z,4.08
2018-12-11T18:31:17.744Z,4.30
2018-12-11T18:33:46.370Z,3.92
2018-12-11T18:36:16.437Z,4.20
2018-12-11T18:38:44.792Z,4.78
2018-12-11T18:41:14.259Z,5.37
2018-12-11T18:43:43.138Z,6.47
2018-12-11T18:46:13.478Z,7.00
2018-12-11T18:48:42.867Z,7.35
2018-12-11T18:51:12.531Z,6.75
2018-12-11T18:53:41.289Z,5.47
2018-12-11T18:56:10.256Z,5.00
2018-12-11T18:58:39.304Z,5.03
2018-12-11T19:01:08.831Z,5.30
2018-12-11T19:03:38.405Z,5.35
2018-12-11T19:06:08.316Z,5.92
2018-12-11T19:08:38.623Z,6.40
2018-12-11T19:11:08.529Z,5.78
2018-12-11T19:13:38.245Z,6.25
2018-12-11T19:16:06.808Z,6.42
2018-12-11T19:18:36.445Z,6.58
2018-12-11T19:21:06.481Z,6.40
2018-12-11T19:23:42.845Z,6.87
2018-12-11T19:26:11.900Z,6.12
2018-12-11T19:28:40.653Z,5.90
2018-12-11T19:31:11.084Z,5.80
2018-12-11T19:33:40.091Z,5.58
2018-12-11T19:36:09.633Z,7.03
2018-12-11T19:38:38.379Z,7.47
2018-12-11T19:41:06.961Z,6.25
2018-12-11T19:43:35.948Z,5.67
2018-12-11T19:46:05.542Z,5.30
2018-12-11T19:48:34.313Z,5.28
2018-12-11T19:51:03.158Z,4.60
2018-12-11T19:53:33.178Z,5.35
2018-12-11T19:56:02.793Z,5.37
2018-12-11T19:58:31.582Z,4.97
2018-12-11T20:01:01.775Z,4.70
2018-12-11T20:03:30.495Z,4.28
2018-12-11T20:05:59.827Z,5.50
2018-12-11T20:08:31.174Z,5.37
2018-12-11T20:11:03.492Z,5.00
2018-12-11T20:13:32.324Z,5.30
2018-12-11T20:16:01.694Z,4.80
2018-12-11T20:18:31.103Z,4.80
2018-12-11T20:21:01.016Z,4.53
2018-12-11T20:23:30.673Z,4.40
2018-12-11T20:25:59.955Z,4.20
2018-12-11T20:28:28.699Z,4.10
2018-12-11T20:30:58.314Z,4.20
2018-12-11T20:33:27.530Z,4.10
2018-12-11T20:35:56.847Z,4.55
2018-12-11T20:38:25.881Z,5.42
2018-12-11T20:40:54.354Z,5.20
2018-12-11T20:43:24.004Z,4.92
2018-12-11T20:45:53.727Z,5.75
2018-12-11T20:48:23.334Z,5.00
2018-12-11T20:50:52.712Z,4.80
2018-12-11T20:53:21.992Z,5.12
2018-12-11T20:55:51.275Z,5.30
2018-12-11T20:58:20.331Z,6.22
2018-12-11T21:00:49.269Z,5.97
2018-12-11T21:03:18.171Z,5.45
2018-12-11T21:05:47.380Z,5.90
2018-12-11T21:08:17.624Z,5.17
2018-12-11T21:10:46.818Z,5.45
2018-12-11T21:13:15.465Z,5.83
2018-12-11T21:15:44.128Z,6.72
2018-12-11T21:18:13.320Z,7.47
2018-12-11T21:20:41.994Z,7.30
2018-12-11T21:23:11.221Z,7.17
2018-12-11T21:25:39.880Z,6.40
2018-12-11T21:28:08.432Z,6.50
2018-12-11T21:30:37.451Z,5.90
2018-12-11T21:33:06.079Z,6.28
2018-12-11T21:35:34.883Z,5.85
2018-12-11T21:38:04.007Z,5.53
2018-12-11T21:40:33.621Z,5.22
2018-12-11T21:43:03.663Z,5.10
2018-12-11T21:45:33.104Z,5.05
2018-12-11T21:48:02.325Z,5.15
2018-12-11T21:50:31.209Z,5.15
2018-12-11T21:53:00.607Z,4.90
2018-12-11T21:55:30.326Z,4.50
2018-12-11T21:57:59.405Z,4.35
2018-12-11T22:00:28.416Z,4.00
2018-12-11T22:02:57.495Z,4.25
2018-12-11T22:05:27.159Z,3.95
2018-12-11T22:07:56.038Z,4.50
2018-12-11T22:10:24.939Z,3.92
2018-12-11T22:12:55.244Z,4.00
2018-12-11T22:15:23.898Z,4.00
2018-12-11T22:17:53.780Z,4.72
2018-12-11T22:20:23.125Z,5.40
2018-12-11T22:22:53.114Z,6.97
2018-12-11T22:25:22.135Z,6.42
2018-12-11T22:27:52.053Z,6.83
2018-12-11T22:30:21.735Z,6.70
2018-12-11T22:32:51.692Z,6.50
2018-12-11T22:35:20.761Z,6.95
2018-12-11T22:37:49.934Z,6.58
2018-12-11T22:40:18.481Z,6.35
2018-12-11T22:42:48.099Z,6.10
2018-12-11T22:45:16.634Z,5.80
2018-12-11T22:47:45.987Z,6.22
2018-12-11T22:50:14.704Z,5.72
2018-12-11T22:52:43.734Z,5.72
2018-12-11T22:55:13.108Z,5.85
2018-12-11T22:57:42.334Z,5.80
2018-12-11T23:00:11.520Z,5.75
2018-12-11T23:02:40.673Z,5.50
2018-12-11T23:05:10.972Z,5.87
2018-12-11T23:07:40.449Z,5.55
2018-12-11T23:10:09.979Z,5.08
2018-12-11T23:12:39.418Z,4.90
2018-12-11T23:15:07.930Z,4.50
2018-12-11T23:17:36.954Z,4.70
2018-12-11T23:20:05.982Z,4.47
2018-12-11T23:22:35.421Z,4.17
2018-12-11T23:25:04.725Z,4.12
2018-12-11T23:27:34.152Z,3.83
2018-12-11T23:30:03.045Z,3.85
2018-12-11T23:32:32.522Z,4.03
2018-12-11T23:35:02.331Z,3.70
2018-12-11T23:37:31.701Z,3.60
2018-12-11T23:40:01.766Z,3.85
2018-12-11T23:42:31.374Z,3.80
2018-12-11T23:45:00.593Z,3.70
2018-12-11T23:47:29.809Z,3.33
2018-12-11T23:49:58.707Z,3.20
2018-12-11T23:52:27.832Z,3.45
2018-12-11T23:54:57.443Z,2.95
2018-12-11T23:57:25.733Z,3.25
2018-12-11T23:59:54.817Z,3.27
